Terminal Aerodrome Forecast
Issued by NWS

Home | Current Version | Previous Version | Text Only | Print | Product List | Glossary On
Versions: 1 2 3 4 5 6 7 8 9 10 11 12 13
325
FTUS42 KMLB 252336
TAFFPR
TAF
KFPR 252336Z 2600/2624 13010KT P6SM FEW090
     FM260400 14005KT P6SM SKC
     FM261400 18007KT P6SM SCT035
     FM261900 12011KT P6SM SCT045=

USA.gov is the U.S. government's official web portal to all federal, state and local government web resources and services.